Sonangol Maiombe — C6DC7 — position and weather

sailwx.info

Track history (hours):
 
Tides and Currents Weather Stations Pressure Air Temp Water Temp Dewpoint Dewpoint Depression Visibility Wind Speed Wind Dir Waves Ship Positions

Sonangol Maiombe

Last reported at 2017-Sep-14 21:14 UTC. Time now 2017-Sep-20 23:42 UTC.
Position N 03°46' W 002°58'.

Length 274 m; draft 9.1 m.

Type: Tanker. MMSI: 311000639.

Date/timePositionNaut miles runAvg speedWind from/ knotsBaromVisibWave heightAir tempDewpointWater temp
2017-Sep-14 21:14N 03°46' W 002°58'3510.9
2017-Sep-14 17:59N 03°50' W 002°23'711.3
2017-Sep-14 17:25N 03°51' W 002°17'511.5
2017-Sep-14 16:59N 03°51' W 002°12'511.5
2017-Sep-14 16:30N 03°52' W 002°06'19511.5
2017-Sep-13 23:34N 05°01' E 000°57'111.4
2017-Sep-13 23:28N 05°01' E 000°58'1311.3
2017-Sep-13 22:17N 05°10' E 001°08'311.5
2017-Sep-13 22:00N 05°12' E 001°10'1912.6
2017-Sep-13 20:30N 05°31' E 001°13'612.8
2017-Sep-13 20:00N 05°37' E 001°13'612.8
2017-Sep-13 19:30N 05°43' E 001°14'21 1.0
2017-Sep-12 22:31N 06°04' E 001°17'0 0.1
2017-Sep-12 22:19N 06°04' E 001°17'0 0.0
2017-Sep-12 21:52N 06°04' E 001°17'  
2017-Sep-10 01:09N 06°02' E 001°16'0 0.2
2017-Sep-10 01:00N 06°02' E 001°16'0 0.5
2017-Sep-10 00:31N 06°02' E 001°15'1 3.0
2017-Sep-10 00:01N 06°01' E 001°14'2 4.3
2017-Sep-09 23:29N 05°60' E 001°12'2 3.4
2017-Sep-09 23:01N 05°58' E 001°12'1 1.4
2017-Sep-09 22:31N 05°59' E 001°12'  
2017-Sep-06 23:36N 05°59' E 001°14'0 0.0
2017-Sep-05 23:35N 05°59' E 001°13'0 0.1
2017-Sep-05 23:29N 05°59' E 001°13'0 0.0
2017-Sep-05 22:59N 05°59' E 001°13'0 0.0
2017-Sep-05 22:14N 05°59' E 001°13'0 0.0
2017-Sep-05 21:59N 05°59' E 001°13'0 0.0
2017-Sep-05 21:23N 05°59' E 001°13'0 0.0
2017-Sep-05 20:59N 05°59' E 001°13'0 0.0
2017-Sep-05 20:29N 05°59' E 001°13'0 0.0
2017-Sep-05 19:53N 05°59' E 001°13'0 0.0
2017-Sep-05 19:20N 05°59' E 001°13'0 0.0
2017-Sep-05 17:44N 05°59' E 001°13'0 0.0
2017-Sep-05 17:29N 05°59' E 001°13'0 0.0
2017-Sep-05 16:59N 05°59' E 001°13'0 0.0
2017-Sep-05 16:23N 05°59' E 001°13'0 0.0
2017-Sep-05 14:59N 05°59' E 001°14'0 0.0
2017-Sep-05 14:29N 05°59' E 001°14'0 0.0
2017-Sep-05 04:40N 05°59' E 001°14'0 0.1
2017-Sep-05 04:30N 05°59' E 001°14'0 0.0
2017-Sep-05 03:41N 05°59' E 001°14'0 0.0
2017-Sep-05 03:30N 05°59' E 001°14'0 0.0
2017-Sep-05 02:53N 05°59' E 001°14'0 0.0
2017-Sep-05 02:30N 05°59' E 001°14'0 0.0
2017-Sep-05 02:00N 05°59' E 001°14'0 0.0
2017-Sep-05 01:12N 05°59' E 001°14'0 0.1
2017-Sep-05 00:51N 05°59' E 001°14'0 0.0
2017-Sep-05 00:29N 05°59' E 001°14'0 0.1
2017-Sep-05 00:00N 05°59' E 001°14'0 0.0
2017-Sep-04 22:42N 05°59' E 001°14'0 0.0
2017-Sep-04 22:30N 05°59' E 001°14'0 0.0
2017-Sep-04 21:52N 05°59' E 001°14'0 0.0
2017-Sep-04 21:30N 05°59' E 001°14'  
Track history (hours):
 
Tides and Currents Weather Stations Pressure Air Temp Water Temp Dewpoint Dewpoint Depression Visibility Wind Speed Wind Dir Waves Ship Positions

Sonangol Maiombe

Last reported at 2017-Sep-14 21:14 UTC. Time now 2017-Sep-20 23:42 UTC.
Position N 03°46' W 002°58'.

Length 274 m; draft 9.1 m.

Type: Tanker. MMSI: 311000639.

Date/timePositionNaut miles runAvg speedWind from/ knotsBaromVisibWave heightAir tempDewpointWater temp
2017-Sep-14 21:14N 03°46' W 002°58'3510.9
2017-Sep-14 17:59N 03°50' W 002°23'711.3
2017-Sep-14 17:25N 03°51' W 002°17'511.5
2017-Sep-14 16:59N 03°51' W 002°12'511.5
2017-Sep-14 16:30N 03°52' W 002°06'19511.5
2017-Sep-13 23:34N 05°01' E 000°57'111.4
2017-Sep-13 23:28N 05°01' E 000°58'1311.3
2017-Sep-13 22:17N 05°10' E 001°08'311.5
2017-Sep-13 22:00N 05°12' E 001°10'1912.6
2017-Sep-13 20:30N 05°31' E 001°13'612.8
2017-Sep-13 20:00N 05°37' E 001°13'612.8
2017-Sep-13 19:30N 05°43' E 001°14'21 1.0
2017-Sep-12 22:31N 06°04' E 001°17'0 0.1
2017-Sep-12 22:19N 06°04' E 001°17'0 0.0
2017-Sep-12 21:52N 06°04' E 001°17'  
2017-Sep-10 01:09N 06°02' E 001°16'0 0.2
2017-Sep-10 01:00N 06°02' E 001°16'0 0.5
2017-Sep-10 00:31N 06°02' E 001°15'1 3.0
2017-Sep-10 00:01N 06°01' E 001°14'2 4.3
2017-Sep-09 23:29N 05°60' E 001°12'2 3.4
2017-Sep-09 23:01N 05°58' E 001°12'1 1.4
2017-Sep-09 22:31N 05°59' E 001°12'  
2017-Sep-06 23:36N 05°59' E 001°14'0 0.0
2017-Sep-05 23:35N 05°59' E 001°13'0 0.1
2017-Sep-05 23:29N 05°59' E 001°13'0 0.0
2017-Sep-05 22:59N 05°59' E 001°13'0 0.0
2017-Sep-05 22:14N 05°59' E 001°13'0 0.0
2017-Sep-05 21:59N 05°59' E 001°13'0 0.0
2017-Sep-05 21:23N 05°59' E 001°13'0 0.0
2017-Sep-05 20:59N 05°59' E 001°13'0 0.0
2017-Sep-05 20:29N 05°59' E 001°13'0 0.0
2017-Sep-05 19:53N 05°59' E 001°13'0 0.0
2017-Sep-05 19:20N 05°59' E 001°13'0 0.0
2017-Sep-05 17:44N 05°59' E 001°13'0 0.0
2017-Sep-05 17:29N 05°59' E 001°13'0 0.0
2017-Sep-05 16:59N 05°59' E 001°13'0 0.0
2017-Sep-05 16:23N 05°59' E 001°13'0 0.0
2017-Sep-05 14:59N 05°59' E 001°14'0 0.0
2017-Sep-05 14:29N 05°59' E 001°14'0 0.0
2017-Sep-05 04:40N 05°59' E 001°14'0 0.1
2017-Sep-05 04:30N 05°59' E 001°14'0 0.0
2017-Sep-05 03:41N 05°59' E 001°14'0 0.0
2017-Sep-05 03:30N 05°59' E 001°14'0 0.0
2017-Sep-05 02:53N 05°59' E 001°14'0 0.0
2017-Sep-05 02:30N 05°59' E 001°14'0 0.0
2017-Sep-05 02:00N 05°59' E 001°14'0 0.0
2017-Sep-05 01:12N 05°59' E 001°14'0 0.1
2017-Sep-05 00:51N 05°59' E 001°14'0 0.0
2017-Sep-05 00:29N 05°59' E 001°14'0 0.1
2017-Sep-05 00:00N 05°59' E 001°14'0 0.0
2017-Sep-04 22:42N 05°59' E 001°14'0 0.0
2017-Sep-04 22:30N 05°59' E 001°14'0 0.0
2017-Sep-04 21:52N 05°59' E 001°14'0 0.0
2017-Sep-04 21:30N 05°59' E 001°14'  

Dump ship's entire track history